Time;durP1;ratioP1;P1;durP2;ratioP2;P2;SDS_P1;SDS_P2;PMS_P1;PMS_P2;Temp;Humidity;BMP_temperature;BMP_pressure;BME280_temperature;BME280_humidity;BME280_pressure;Samples;Min_cycle;Max_cycle;Signal;HPM_P1;HPM_P2
2022/06/21 00:00:38;;;;;;;18.27;16.42;;;22.70;99.90;;;;;;5057247;28;20027;-76
2022/06/21 00:03:15;;;;;;;18.60;16.63;;;22.70;99.90;;;;;;5055884;28;20021;-76
2022/06/21 00:05:43;;;;;;;22.33;16.35;;;22.80;99.90;;;;;;5057655;28;20055;-76
2022/06/21 00:08:16;;;;;;;18.08;16.30;;;22.80;99.90;;;;;;5057085;28;20017;-76
2022/06/21 00:10:43;;;;;;;20.27;15.98;;;22.80;99.90;;;;;;5056751;28;20017;-77
2022/06/21 00:13:18;;;;;;;18.77;16.20;;;22.80;99.90;;;;;;5057053;28;20074;-76
2022/06/21 00:15:47;;;;;;;28.90;18.17;;;22.80;99.90;;;;;;5057239;28;20020;-76
2022/06/21 00:18:18;;;;;;;18.73;16.38;;;22.80;99.90;;;;;;5056717;28;20055;-77
2022/06/21 00:20:45;;;;;;;21.87;17.53;;;22.80;99.90;;;;;;5057205;28;20052;-77
2022/06/21 00:23:20;;;;;;;22.73;17.05;;;22.80;99.90;;;;;;5056654;28;20024;-76
2022/06/21 00:25:46;;;;;;;18.55;15.13;;;22.90;99.90;;;;;;5056510;28;20021;-78
2022/06/21 00:28:17;;;;;;;17.75;15.40;;;22.90;99.90;;;;;;5055523;28;20017;-77
2022/06/21 00:30:44;;;;;;;20.23;15.63;;;22.90;99.90;;;;;;5055448;28;20025;-77
2022/06/21 00:33:19;;;;;;;18.08;14.45;;;23.00;99.90;;;;;;5055302;28;20020;-76
2022/06/21 00:35:48;;;;;;;19.80;15.40;;;23.00;99.90;;;;;;5055825;28;20071;-75
2022/06/21 00:38:16;;;;;;;16.80;14.73;;;23.00;99.90;;;;;;5055021;28;20392;-77
2022/06/21 00:40:42;;;;;;;19.05;15.18;;;23.00;99.90;;;;;;5056557;28;20029;-76
2022/06/21 00:43:16;;;;;;;22.67;15.07;;;23.10;99.90;;;;;;5055242;28;20032;-75
2022/06/21 00:45:45;;;;;;;16.10;14.40;;;23.00;99.90;;;;;;5055983;28;20025;-78
2022/06/21 00:48:28;;;;;;;16.48;14.73;;;23.10;99.90;;;;;;5056194;28;20021;-76
2022/06/21 00:51:08;;;;;;;16.45;14.77;;;23.10;99.90;;;;;;5056294;28;20039;-76
2022/06/21 00:53:38;;;;;;;17.90;15.32;;;23.10;99.90;;;;;;5056082;28;20447;-76
2022/06/21 00:56:19;;;;;;;16.88;15.15;;;23.00;99.90;;;;;;5056073;28;20049;-76
2022/06/21 00:58:45;;;;;;;17.00;14.75;;;23.00;99.90;;;;;;5055967;28;20025;-78
2022/06/21 01:01:29;;;;;;;19.15;14.35;;;23.00;99.90;;;;;;5055637;28;20033;-76
2022/06/21 01:04:01;;;;;;;18.08;14.68;;;23.00;99.90;;;;;;5055729;28;20039;-77
2022/06/21 01:06:39;;;;;;;;;;;23.00;99.90;;;;;;5056261;28;20529;-76
2022/06/21 01:09:20;;;;;;;15.65;14.07;;;23.00;99.90;;;;;;5055774;28;19900;-76
2022/06/21 01:11:53;;;;;;;17.58;15.38;;;23.00;99.90;;;;;;5055898;28;20524;-77
2022/06/21 01:14:22;;;;;;;24.85;14.48;;;22.90;99.90;;;;;;5055711;28;20083;-76
2022/06/21 01:16:48;;;;;;;20.70;16.05;;;23.00;99.90;;;;;;5055593;28;20021;-76
2022/06/21 01:19:25;;;;;;;20.17;14.93;;;22.90;99.90;;;;;;5054380;28;20128;-76
2022/06/21 01:21:57;;;;;;;20.35;15.10;;;22.90;99.90;;;;;;5055168;28;20032;-77
2022/06/21 01:24:43;;;;;;;18.65;15.02;;;22.80;99.90;;;;;;5056095;28;20028;-78
2022/06/21 01:27:08;;;;;;;18.35;13.95;;;22.90;99.90;;;;;;5055149;28;20032;-76
2022/06/21 01:29:35;;;;;;;16.38;14.07;;;22.80;99.90;;;;;;5054403;28;20021;-77
2022/06/21 01:32:05;;;;;;;17.00;14.55;;;22.80;99.90;;;;;;5055928;28;20025;-77
2022/06/21 01:34:31;;;;;;;23.95;13.73;;;22.80;99.90;;;;;;5055141;28;20044;-76
2022/06/21 01:37:08;;;;;;;18.75;15.05;;;22.80;99.90;;;;;;5055526;28;20418;-77
2022/06/21 01:39:41;;;;;;;18.88;14.77;;;22.80;99.90;;;;;;5054200;28;20048;-77
2022/06/21 01:42:31;;;;;;;20.17;14.70;;;22.80;99.90;;;;;;5054123;28;20037;-77
2022/06/21 01:45:02;;;;;;;18.38;14.63;;;22.70;99.90;;;;;;5054211;28;20032;-76
2022/06/21 01:47:38;;;;;;;19.42;15.23;;;22.70;99.90;;;;;;5054688;28;20013;-76
2022/06/21 01:50:07;;;;;;;19.13;14.63;;;22.70;99.90;;;;;;5054279;28;20017;-76
2022/06/21 01:52:36;;;;;;;16.88;15.13;;;22.70;99.90;;;;;;5054117;28;20013;-77
2022/06/21 01:55:10;;;;;;;22.17;14.73;;;22.70;99.90;;;;;;5053916;28;20017;-77
2022/06/21 01:57:37;;;;;;;20.85;14.05;;;22.60;99.90;;;;;;5054364;28;20020;-77
2022/06/21 02:00:04;;;;;;;19.60;15.13;;;22.60;99.90;;;;;;5054146;28;20471;-77
2022/06/21 02:02:46;;;;;;;23.63;15.43;;;22.60;99.90;;;;;;5053521;28;20021;-78
2022/06/21 02:05:23;;;;;;;15.88;13.98;;;22.60;99.90;;;;;;5054141;28;20056;-76
2022/06/21 02:07:56;;;;;;;18.45;14.55;;;22.60;99.90;;;;;;5053473;28;20471;-76
2022/06/21 02:10:41;;;;;;;18.17;14.85;;;22.60;99.90;;;;;;5053931;28;20044;-76
2022/06/21 02:13:33;;;;;;;19.25;14.07;;;22.60;99.90;;;;;;5054735;28;20021;-75
2022/06/21 02:16:04;;;;;;;21.27;14.27;;;22.60;99.90;;;;;;5053362;28;20079;-76
2022/06/21 02:18:33;;;;;;;19.60;14.68;;;22.60;99.90;;;;;;5054258;28;20029;-75
2022/06/21 02:21:01;;;;;;;21.45;14.60;;;22.60;99.90;;;;;;5054020;28;20052;-76
2022/06/21 02:23:28;;;;;;;23.95;15.23;;;22.60;99.90;;;;;;5052294;28;20073;-76
2022/06/21 02:25:55;;;;;;;19.60;14.88;;;22.60;99.90;;;;;;5054493;28;20071;-76
2022/06/21 02:28:23;;;;;;;22.83;14.05;;;22.60;99.90;;;;;;5052790;28;20023;-78
2022/06/21 02:30:52;;;;;;;25.13;13.18;;;22.50;99.90;;;;;;5052818;28;20025;-77
2022/06/21 02:33:23;;;;;;;18.52;14.00;;;22.50;99.90;;;;;;5054649;28;20068;-77
2022/06/21 02:35:53;;;;;;;22.65;14.93;;;22.50;99.90;;;;;;5054240;28;20509;-76
2022/06/21 02:38:31;;;;;;;17.73;13.60;;;22.50;99.90;;;;;;5054203;28;20119;-76
2022/06/21 02:41:04;;;;;;;20.13;14.05;;;22.40;99.90;;;;;;5053309;28;20348;-76
2022/06/21 02:43:41;;;;;;;19.75;14.05;;;22.40;99.90;;;;;;5053995;28;20470;-75
2022/06/21 02:46:15;;;;;;;20.40;13.95;;;22.40;99.90;;;;;;5052679;28;20047;-77
2022/06/21 02:48:52;;;;;;;17.83;13.25;;;22.40;99.90;;;;;;5054040;28;20013;-75
2022/06/21 02:51:26;;;;;;;18.40;12.75;;;22.40;99.90;;;;;;5053947;28;20021;-76
2022/06/21 02:54:04;;;;;;;28.15;13.50;;;22.40;99.90;;;;;;5054066;28;20515;-76
2022/06/21 02:56:41;;;;;;;20.00;12.98;;;22.50;99.90;;;;;;5053977;28;20021;-76
2022/06/21 02:59:08;;;;;;;16.65;12.40;;;22.50;99.90;;;;;;5053945;28;20016;-76
2022/06/21 03:01:42;;;;;;;19.23;13.38;;;22.60;99.90;;;;;;5053849;28;20075;-76
2022/06/21 03:04:20;;;;;;;14.70;12.48;;;22.70;99.90;;;;;;5053584;28;20104;-77
2022/06/21 03:06:46;;;;;;;23.23;12.35;;;22.70;99.90;;;;;;5053550;28;20482;-76
2022/06/21 03:09:22;;;;;;;16.83;12.57;;;22.70;99.90;;;;;;5052434;28;20025;-78
2022/06/21 03:11:53;;;;;;;20.50;12.60;;;22.70;99.90;;;;;;5053732;28;20029;-77
2022/06/21 03:14:23;;;;;;;17.73;12.93;;;22.80;99.90;;;;;;5052969;28;20013;-78
2022/06/21 03:16:52;;;;;;;20.80;13.43;;;22.80;99.90;;;;;;5052432;28;20021;-77
2022/06/21 03:19:40;;;;;;;14.20;12.73;;;22.70;99.90;;;;;;5052909;28;20072;-75
2022/06/21 03:22:26;;;;;;;19.67;13.57;;;22.70;99.90;;;;;;5053634;28;20032;-77
2022/06/21 03:24:56;;;;;;;20.05;14.00;;;22.70;99.90;;;;;;5053777;28;20021;-75
2022/06/21 03:27:26;;;;;;;17.52;13.05;;;22.70;99.90;;;;;;5052892;28;20417;-76
2022/06/21 03:29:52;;;;;;;19.20;13.20;;;22.70;99.90;;;;;;5053868;28;20366;-76
2022/06/21 03:32:17;;;;;;;22.65;13.48;;;22.70;99.90;;;;;;5053781;28;20083;-76
2022/06/21 03:34:45;;;;;;;17.35;13.50;;;22.70;99.90;;;;;;5053220;28;20112;-78
2022/06/21 03:37:11;;;;;;;14.98;13.05;;;22.70;99.90;;;;;;5051856;28;20020;-78
2022/06/21 03:42:27;;;;;;;19.40;13.73;;;22.70;99.90;;;;;;5052955;28;20539;-77
2022/06/21 03:44:55;;;;;;;;;;;22.70;99.90;;;;;;5052816;28;20032;-76
2022/06/21 03:47:37;;;;;;;19.58;14.43;;;22.70;99.90;;;;;;5053106;28;19901;-78
2022/06/21 03:50:36;;;;;;;20.67;14.07;;;22.60;99.90;;;;;;5052596;28;20013;-77
2022/06/21 03:53:09;;;;;;;18.13;13.90;;;22.50;99.90;;;;;;5014494;28;20037;-77
2022/06/21 03:55:52;;;;;;;20.35;13.50;;;22.50;99.90;;;;;;5030777;28;20141;-77
2022/06/21 03:58:28;;;;;;;21.50;14.55;;;22.50;99.90;;;;;;5031008;28;20045;-78
2022/06/21 04:01:01;;;;;;;23.17;14.60;;;22.50;99.90;;;;;;5031030;28;20064;-78
2022/06/21 04:03:29;;;;;;;14.93;12.98;;;22.60;99.90;;;;;;5014442;28;20111;-77
2022/06/21 04:06:08;;;;;;;16.52;14.02;;;22.60;99.90;;;;;;5030995;28;20053;-77
2022/06/21 04:09:00;;;;;;;17.27;13.70;;;22.60;99.90;;;;;;5030662;28;20476;-77
2022/06/21 04:11:35;;;;;;;19.98;14.98;;;22.50;99.90;;;;;;5013819;28;20446;-76
2022/06/21 04:14:14;;;;;;;25.15;15.68;;;22.60;99.90;;;;;;5030996;28;20021;-78
2022/06/21 04:16:58;;;;;;;24.48;16.08;;;22.60;99.90;;;;;;5030629;28;20065;-76
2022/06/21 04:19:35;;;;;;;24.77;14.27;;;22.60;99.90;;;;;;5030950;28;20171;-76
2022/06/21 04:22:21;;;;;;;18.02;14.27;;;22.70;99.90;;;;;;5014014;28;20037;-78
2022/06/21 04:24:58;;;;;;;26.75;14.15;;;22.70;99.90;;;;;;5013967;28;20112;-76
2022/06/21 04:27:50;;;;;;;20.40;13.75;;;22.80;99.90;;;;;;5030777;28;20112;-77
2022/06/21 04:30:25;;;;;;;17.30;12.93;;;22.90;99.90;;;;;;5049850;28;20443;-79
2022/06/21 04:33:20;;;;;;;15.88;12.57;;;22.90;99.90;;;;;;5055420;28;20440;-78
2022/06/21 04:36:00;;;;;;;18.00;14.63;;;23.00;99.90;;;;;;5056289;28;20059;-79
2022/06/21 04:38:32;;;;;;;21.35;13.70;;;23.00;99.90;;;;;;5057006;28;20054;-77
2022/06/21 04:41:06;;;;;;;17.77;13.32;;;23.10;99.90;;;;;;5056289;28;20048;-76
2022/06/21 04:43:45;;;;;;;22.42;13.23;;;23.20;99.90;;;;;;5056109;28;20048;-77
2022/06/21 04:46:15;;;;;;;23.30;12.45;;;23.30;99.90;;;;;;5054871;28;20029;-76
2022/06/21 04:49:01;;;;;;;21.83;12.95;;;23.40;99.90;;;;;;5056799;28;20047;-77
2022/06/21 04:51:49;;;;;;;19.45;12.25;;;23.50;99.90;;;;;;5051589;28;20041;-77
2022/06/21 04:54:24;;;;;;;20.60;12.32;;;23.50;99.90;;;;;;5055073;28;20090;-74
2022/06/21 04:57:07;;;;;;;21.55;12.00;;;23.60;99.90;;;;;;5055943;28;20021;-77
2022/06/21 04:59:56;;;;;;;16.77;12.05;;;23.70;99.90;;;;;;5056463;28;20077;-76
2022/06/21 05:02:31;;;;;;;17.17;12.38;;;23.80;99.90;;;;;;5054542;28;20024;-76
2022/06/21 05:05:17;;;;;;;17.05;12.50;;;23.90;99.90;;;;;;5054586;28;20025;-77
2022/06/21 05:07:49;;;;;;;13.35;10.98;;;;;;;;;;5055931;28;20021;-78
2022/06/21 05:10:29;;;;;;;26.23;12.75;;;24.20;99.90;;;;;;5055855;28;20070;-76
2022/06/21 05:12:57;;;;;;;20.17;13.13;;;;;;;;;;5054609;28;20099;-77
2022/06/21 05:15:25;;;;;;;19.58;12.00;;;;;;;;;;5055218;28;20027;-78
2022/06/21 05:18:00;;;;;;;22.13;13.38;;;;;;;;;;5055888;28;20025;-77
2022/06/21 05:20:29;;;;;;;16.35;12.80;;;;;;;;;;5035758;28;20376;-78
2022/06/21 05:22:56;;;;;;;21.35;12.82;;;;;;;;;;5052272;28;20112;-77
2022/06/21 05:25:25;;;;;;;17.58;12.27;;;;;;;;;;5054906;28;20483;-77
2022/06/21 05:27:58;;;;;;;18.92;12.35;;;;;;;;;;5053873;28;20458;-78
2022/06/21 05:30:27;;;;;;;18.63;11.40;;;;;;;;;;5054964;28;20460;-79
2022/06/21 05:32:55;;;;;;;16.73;11.98;;;;;;;;;;5054122;28;20363;-76
2022/06/21 05:35:24;;;;;;;14.75;11.98;;;;;;;;;;5054460;28;20017;-78
2022/06/21 05:37:50;;;;;;;17.17;11.55;;;;;;;;;;5055045;28;20016;-76
2022/06/21 05:40:35;;;;;;;20.75;11.50;;;;;;;;;;5055139;28;20048;-78
2022/06/21 05:43:01;;;;;;;21.58;11.75;;;;;;;;;;5054044;28;20031;-78
2022/06/21 05:45:34;;;;;;;17.00;11.65;;;;;;;;;;5055330;28;20024;-77
2022/06/21 05:48:03;;;;;;;18.58;12.15;;;;;;;;;;5053902;28;20031;-78
2022/06/21 05:50:31;;;;;;;13.32;11.80;;;;;;;;;;5055361;28;20020;-78
2022/06/21 05:52:59;;;;;;;15.23;11.88;;;;;;;;;;5054955;28;20017;-78
2022/06/21 05:55:25;;;;;;;18.63;11.95;;;;;;;;;;5053960;28;20021;-78
2022/06/21 05:57:51;;;;;;;15.23;12.73;;;;;;;;;;5054941;28;20459;-77
2022/06/21 06:00:23;;;;;;;16.80;11.57;;;;;;;;;;5054734;28;20339;-77
2022/06/21 06:02:51;;;;;;;15.30;12.45;;;;;;;;;;5054754;28;20409;-76
2022/06/21 06:05:24;;;;;;;17.02;11.93;;;;;;;;;;5055021;28;20020;-76
2022/06/21 06:07:54;;;;;;;17.33;13.68;;;;;;;;;;5053633;28;20017;-76
2022/06/21 06:10:21;;;;;;;13.60;11.52;;;;;;;;;;5055474;28;20474;-77
2022/06/21 06:12:50;;;;;;;16.35;12.35;;;;;;;;;;5054914;28;20036;-77
2022/06/21 06:15:37;;;;;;;15.43;11.48;;;;;;;;;;5054300;28;20044;-78
2022/06/21 06:18:06;;;;;;;14.55;12.30;;;;;;;;;;5054948;28;20045;-77
2022/06/21 06:20:33;;;;;;;14.65;11.45;;;;;;;;;;5054142;28;20040;-78
2022/06/21 06:23:02;;;;;;;15.77;12.00;;;;;;;;;;5054516;28;20017;-78
2022/06/21 06:25:33;;;;;;;14.30;11.75;;;;;;;;;;5054307;28;20375;-77
2022/06/21 06:28:05;;;;;;;20.40;11.75;;;;;;;;;;5053024;28;20013;-78
2022/06/21 06:31:00;;;;;;;14.75;10.82;;;;;;;;;;5053315;28;20033;-77
2022/06/21 06:33:37;;;;;;;11.77;10.38;;;;;;;;;;5032196;28;20029;-77
2022/06/21 06:36:07;;;;;;;16.00;11.60;;;;;;;;;;5032251;28;20025;-76
2022/06/21 06:38:33;;;;;;;15.10;11.00;;;;;;;;;;5032224;28;20065;-76
2022/06/21 06:41:12;;;;;;;15.15;9.82;;;;;;;;;;5032260;28;20037;-77
2022/06/21 06:43:47;;;;;;;18.77;11.70;;;;;;;;;;5032042;28;20546;-78
2022/06/21 06:46:17;;;;;;;16.35;10.18;;;;;;;;;;5032151;28;20022;-78
2022/06/21 06:48:44;;;;;;;12.45;11.07;;;;;;;;;;5015325;28;20029;-78
2022/06/21 06:51:33;;;;;;;16.35;12.38;;;;;;;;;;5031633;28;20033;-78
2022/06/21 06:54:00;;;;;;;14.95;11.88;;;;;;;;;;5024265;28;20033;-78
2022/06/21 06:56:29;;;;;;;20.88;11.15;;;;;;;;;;5031287;28;20164;-79
2022/06/21 06:58:58;;;;;;;29.45;11.70;;;;;;;;;;5031984;28;20060;-78
2022/06/21 07:01:45;;;;;;;15.13;12.00;;;;;;;;;;5014902;28;20082;-77
2022/06/21 07:04:14;;;;;;;18.73;11.50;;;;;;;;;;5031163;28;20115;-77
2022/06/21 07:06:42;;;;;;;18.48;11.95;;;;;;;;;;5031319;28;20650;-78
2022/06/21 07:09:20;;;;;;;16.45;11.82;;;;;;;;;;5020265;28;20041;-78
2022/06/21 07:12:05;;;;;;;18.52;12.00;;;;;;;;;;5053134;28;20078;-79
2022/06/21 07:14:32;;;;;;;14.43;11.05;;;;;;;;;;5052632;28;20408;-78
2022/06/21 07:17:18;;;;;;;16.95;10.90;;;;;;;;;;5051913;28;20568;-79
2022/06/21 07:19:45;;;;;;;11.60;9.82;;;;;;;;;;5052497;28;20128;-78
2022/06/21 07:22:16;;;;;;;15.00;9.50;;;;;;;;;;5053135;28;20371;-78
2022/06/21 07:24:45;;;;;;;11.10;10.00;;;;;;;;;;5053570;28;20025;-78
2022/06/21 07:27:14;;;;;;;10.95;9.88;;;;;;;;;;5053348;28;20062;-78
2022/06/21 07:29:52;;;;;;;12.00;10.68;;;;;;;;;;5053543;28;20017;-79
2022/06/21 07:32:24;;;;;;;11.13;10.02;;;;;;;;;;5052190;28;20125;-78
2022/06/21 07:34:56;;;;;;;11.07;9.85;;;;;;;;;;5052402;28;20422;-79
2022/06/21 07:37:27;;;;;;;16.17;10.70;;;;;;;;;;5052390;28;20017;-78
2022/06/21 07:40:03;;;;;;;13.80;10.85;;;;;;;;;;5053529;28;20021;-78
2022/06/21 07:42:57;;;;;;;17.00;11.75;;;;;;;;;;5052464;28;20040;-78
2022/06/21 07:45:29;;;;;;;13.15;10.65;;;;;;;;;;5049687;28;20075;-77
2022/06/21 07:47:56;;;;;;;17.15;11.73;;;;;;;;;;5053262;28;20062;-78
2022/06/21 07:50:44;;;;;;;13.27;10.98;;;;;;;;;;5053279;28;20043;-77
2022/06/21 07:53:13;;;;;;;19.13;11.65;;;;;;;;;;5053264;28;20022;-78
2022/06/21 07:55:42;;;;;;;12.05;10.63;;;;;;;;;;5052242;28;20021;-78
2022/06/21 07:58:11;;;;;;;16.35;11.10;;;;;;;;;;5053213;28;20017;-78
2022/06/21 08:06:42;;;;;;;15.43;10.48;;;;;;;;;;5035073;28;20025;-78
2022/06/21 08:09:13;;;;;;;12.98;11.68;;;;;;;;;;5055839;28;20021;-79
2022/06/21 08:11:40;;;;;;;12.88;11.57;;;;;;;;;;5055777;28;20017;-79
2022/06/21 08:14:07;;;;;;;14.50;11.50;;;;;;;;;;5056617;28;20020;-78
2022/06/21 08:16:46;;;;;;;18.20;10.85;;;;;;;;;;5055723;28;20017;-78
2022/06/21 08:19:22;;;;;;;13.55;10.88;;;;;;;;;;5055475;28;20037;-78
2022/06/21 08:21:57;;;;;;;14.43;10.93;;;;;;;;;;5055400;28;20040;-78
2022/06/21 08:24:29;;;;;;;12.52;11.32;;;;;;;;;;5055684;28;20017;-78
2022/06/21 08:27:06;;;;;;;16.58;12.07;;;;;;;;;;5056470;28;20479;-79
2022/06/21 08:29:35;;;;;;;13.88;11.10;;;;;;;;;;5057186;28;20025;-79
2022/06/21 08:32:04;;;;;;;12.88;11.52;;;;;;;;;;5056563;28;20366;-78
2022/06/21 08:34:50;;;;;;;13.23;11.05;;;;;;;;;;5055191;28;20017;-79
2022/06/21 08:37:24;;;;;;;14.80;11.30;;;;;;;;;;5056660;28;20075;-76
2022/06/21 08:39:55;;;;;;;14.18;11.25;;;;;;;;;;5056505;28;20463;-78
2022/06/21 08:42:27;;;;;;;11.85;10.65;;;;;;;;;;5055030;28;20430;-77
2022/06/21 08:45:40;;;;;;;12.35;11.15;;;;;;;;;;5056319;28;20474;-76
2022/06/21 08:47:51;;;;;;;16.40;11.90;;;;;;;;;;5055942;28;20064;-76
2022/06/21 08:50:49;;;;;;;16.83;11.30;;;;;;;;;;5056312;28;20040;-76
2022/06/21 08:53:25;;;;;;;12.18;10.95;;;;;;;;;;5017580;28;20141;-77
2022/06/21 08:56:00;;;;;;;12.95;10.90;;;;;;;;;;5033717;28;20104;-75
2022/06/21 08:58:26;;;;;;;16.92;11.45;;;;;;;;;;5017437;28;20036;-76
2022/06/21 09:01:24;;;;;;;12.15;10.65;;;;;;;;;;5034341;28;20060;-77
2022/06/21 09:03:56;;;;;;;13.95;11.05;;;;;;;;;;5016928;28;20021;-77
2022/06/21 09:06:42;;;;;;;16.52;10.77;;;;;;;;;;5016820;28;20017;-76
2022/06/21 09:09:14;;;;;;;16.48;10.57;;;;;;;;;;5032454;28;20476;-77
2022/06/21 09:11:52;;;;;;;18.25;11.27;;;;;;;;;;5033826;28;20028;-76
2022/06/21 09:14:21;;;;;;;13.02;10.55;;;;;;;;;;5033975;28;20396;-75
2022/06/21 09:17:07;;;;;;;13.93;10.90;;;;;;;;;;5033439;28;20026;-76
2022/06/21 09:19:36;;;;;;;16.30;10.10;;;;;;;;;;5026462;28;20045;-77
2022/06/21 09:22:02;;;;;;;11.35;10.15;;;;;;;;;;5033577;28;20044;-75
2022/06/21 09:24:34;;;;;;;17.33;10.02;;;;;;;;;;5033185;28;20027;-75
2022/06/21 09:27:13;;;;;;;11.57;10.50;;;;;;;;;;5033743;28;20052;-76
2022/06/21 09:29:39;;;;;;;11.70;10.50;;;;;;;;;;5052177;28;20036;-76
2022/06/21 09:32:08;;;;;;;10.55;9.55;;;;;;;;;;5055200;28;20074;-77
2022/06/21 09:34:40;;;;;;;13.45;10.82;;;;;;;;;;5055831;28;20020;-77
2022/06/21 09:37:16;;;;;;;11.13;10.10;;;;;;;;;;5055339;28;20025;-76
2022/06/21 09:39:46;;;;;;;12.02;10.80;;;;;;;;;;5054296;28;20013;-75
2022/06/21 09:42:15;;;;;;;12.70;10.02;;;;;;;;;;5055622;28;20340;-77
2022/06/21 09:44:42;;;;;;;12.60;11.35;;;;;;;;;;5055178;28;20024;-77
2022/06/21 09:47:24;;;;;;;13.90;10.20;;;;;;;;;;5055145;28;20092;-75
2022/06/21 09:49:56;;;;;;;13.60;10.10;;;;;;;;;;5054332;28;20417;-76
2022/06/21 09:52:30;;;;;;;14.57;10.05;;;;;;;;;;5054952;28;20147;-76
2022/06/21 09:55:08;;;;;;;12.00;9.05;;;;;;;;;;5055397;28;20104;-76
2022/06/21 09:57:48;;;;;;;14.52;10.32;;;;;;;;;;5054960;28;20020;-76
2022/06/21 10:00:17;;;;;;;13.18;8.48;;;;;;;;;;5055018;28;20025;-77
2022/06/21 10:02:45;;;;;;;14.55;10.23;;;;;;;;;;5054763;28;20037;-76
2022/06/21 10:05:21;;;;;;;13.60;9.35;;;;;;;;;;5054452;28;20455;-78
2022/06/21 10:07:50;;;;;;;12.10;8.77;;;;;;;;;;5055299;28;20025;-76
2022/06/21 10:10:32;;;;;;;10.57;9.02;;;;;;;;;;5054633;28;20341;-77
2022/06/21 10:13:21;;;;;;;9.35;8.48;;;;;;;;;;5054805;28;20366;-76
2022/06/21 10:15:51;;;;;;;10.70;8.38;;;;;;;;;;5049269;28;20104;-78
2022/06/21 10:18:20;;;;;;;10.07;8.63;;;;;;;;;;5054455;28;20031;-76
2022/06/21 10:21:05;;;;;;;11.02;8.10;;;;;;;;;;5053924;28;20098;-76
2022/06/21 10:23:31;;;;;;;12.95;9.45;;;;;;;;;;5054562;28;20024;-76
2022/06/21 10:26:03;;;;;;;9.95;8.88;;;;;;;;;;5054106;28;20020;-76
2022/06/21 10:28:32;;;;;;;18.50;9.68;;;;;;;;;;5054346;28;20028;-76
2022/06/21 10:31:17;;;;;;;10.32;9.07;;;;;;;;;;5053656;28;20086;-77
2022/06/21 10:34:01;;;;;;;11.45;9.20;;;;;;;;;;5054329;28;20593;-78
2022/06/21 10:36:46;;;;;;;10.73;9.40;;;;;;;;;;5054380;28;20029;-77
2022/06/21 10:39:31;;;;;;;13.40;8.55;;;;;;;;;;5054157;28;20414;-76
2022/06/21 10:45:00;;;;;;;13.57;8.90;;;;;;;;;;5054222;28;20023;-75
2022/06/21 10:47:45;;;;;;;12.57;8.93;;;;;;;;;;5052658;28;20017;-75
2022/06/21 10:50:25;;;;;;;11.90;7.80;;;;;;;;;;5054456;28;20142;-77
2022/06/21 10:53:16;;;;;;;10.50;7.90;;;;;;;;;;5054273;28;20087;-76
2022/06/21 10:55:49;;;;;;;13.82;8.65;;;;;;;;;;5053898;28;20028;-77
2022/06/21 10:58:21;;;;;;;9.90;8.52;;;;;;;;;;5052849;28;20017;-77
2022/06/21 11:03:42;;;;;;;12.60;8.00;;;;;;;;;;5054106;28;20028;-76
2022/06/21 11:06:18;;;;;;;12.55;8.20;;;;;;;;;;5052765;28;20464;-76
2022/06/21 11:08:44;;;;;;;10.75;8.02;;;;;;;;;;5052433;28;20017;-75
2022/06/21 11:11:27;;;;;;;16.90;8.65;;;;;;;;;;5053902;28;20020;-76
2022/06/21 11:14:05;;;;;;;12.70;8.32;;;;;;;;;;5052694;28;20020;-76
2022/06/21 11:16:31;;;;;;;10.07;8.85;;;;;;;;;;5052320;28;20017;-76
2022/06/21 11:19:06;;;;;;;10.55;8.85;;;;;;;;;;5053743;28;20470;-76
2022/06/21 11:21:44;;;;;;;13.45;9.90;;;;;;;;;;5053358;28;20033;-76
2022/06/21 11:24:29;;;;;;;13.85;9.07;;;;;;;;;;5053270;28;20028;-76
2022/06/21 11:26:55;;;;;;;11.23;8.57;;;;;;;;;;5053532;28;20104;-75
2022/06/21 11:29:40;;;;;;;11.57;7.82;;;;;;;;;;5053428;28;20021;-76
2022/06/21 11:32:13;;;;;;;11.73;8.23;;;;;;;;;;5052493;28;20348;-75
2022/06/21 11:34:58;;;;;;;10.35;8.38;;;;;;;;;;5053698;28;20009;-76
2022/06/21 11:37:36;;;;;;;13.40;8.45;;;;;;;;;;5051804;28;20107;-77
2022/06/21 11:40:23;;;;;;;15.40;9.07;;;;;;;;;;5054014;28;20475;-77
2022/06/21 11:42:53;;;;;;;14.27;8.07;;;;;;;;;;5050296;28;20045;-76
2022/06/21 11:45:27;;;;;;;10.55;7.90;;;;;;;;;;5057387;28;20108;-77
2022/06/21 11:47:57;;;;;;;13.40;8.77;;;;;;;;;;5057746;28;20463;-78
2022/06/21 11:50:25;;;;;;;9.65;8.20;;;;;;;;;;5057020;28;20041;-78
2022/06/21 11:53:09;;;;;;;10.20;8.18;;;;;;;;;;5057845;28;20062;-76
2022/06/21 11:55:35;;;;;;;11.88;8.38;;;;;;;;;;5057344;28;20020;-76
2022/06/21 11:58:13;;;;;;;13.25;8.02;;;;;;;;;;5056730;28;20451;-76
2022/06/21 12:00:45;;;;;;;10.45;8.68;;;;;;;;;;5057436;28;20024;-77
2022/06/21 12:03:14;;;;;;;9.80;8.20;;;;;;;;;;5057433;28;20024;-77
2022/06/21 12:05:54;;;;;;;9.40;8.40;;;;;;;;;;5057038;28;20096;-76
2022/06/21 12:08:33;;;;;;;13.88;8.35;;;;;;;;;;5056139;28;20341;-76
2022/06/21 12:11:11;;;;;;;10.82;8.48;;;;;;;;;;5055644;28;20362;-77
2022/06/21 12:13:47;;;;;;;12.35;9.10;;;;;;;;;;5057222;28;20027;-75
2022/06/21 12:16:16;;;;;;;12.18;9.00;;;;;;;;;;5057129;28;20021;-76
2022/06/21 12:18:45;;;;;;;14.05;8.05;;;;;;;;;;5055311;28;20066;-77
2022/06/21 12:21:16;;;;;;;11.60;8.32;;;;;;;;;;5055776;28;20025;-76
2022/06/21 12:23:54;;;;;;;11.75;9.05;;;;;;;;;;5057429;28;20013;-75
2022/06/21 12:26:27;;;;;;;10.63;9.45;;;;;;;;;;5056724;28;20031;-75
2022/06/21 12:28:56;;;;;;;9.75;8.10;;;;;;;;;;5056618;28;20023;-76
2022/06/21 12:31:22;;;;;;;14.95;8.82;;;;;;;;;;5055288;28;20026;-77
2022/06/21 12:33:51;;;;;;;10.80;8.50;;;;;;;;;;5055211;28;20021;-75
2022/06/21 12:36:29;;;;;;;14.73;8.13;;;;;;;;;;5056777;28;20028;-76
2022/06/21 12:39:01;;;;;;;11.82;9.50;;;;;;;;;;5056424;28;20029;-76
2022/06/21 12:41:46;;;;;;;12.52;8.98;;;;;;;;;;5056749;28;20451;-76
2022/06/21 12:44:37;;;;;;;9.02;7.82;;;;;;;;;;5056610;28;20021;-76
2022/06/21 12:47:22;;;;;;;8.90;7.55;;;;;;;;;;5027932;28;20033;-75
2022/06/21 12:50:07;;;;;;;10.70;8.30;;;;;;;;;;5056847;28;20021;-76
2022/06/21 12:52:54;;;;;;;10.40;7.93;;;;;;;;;;5055539;28;20078;-76
2022/06/21 12:55:20;;;;;;;15.80;8.15;;;;;;;;;;5049368;28;20033;-76
2022/06/21 12:57:53;;;;;;;12.60;8.40;;;;;;;;;;5056295;28;20023;-75
2022/06/21 13:00:19;;;;;;;18.92;7.63;;;;;;;;;;5056071;28;20029;-75
2022/06/21 13:02:48;;;;;;;10.82;9.00;;;;;;;;;;5055954;28;20410;-77
2022/06/21 13:05:17;;;;;;;9.55;8.40;;;;;;;;;;5055919;28;20027;-76
2022/06/21 13:08:06;;;;;;;12.85;8.10;;;;;;;;;;5055904;28;20025;-75
2022/06/21 13:10:48;;;;;;;16.30;8.50;;;;;;;;;;5056007;28;20021;-76
2022/06/21 13:13:22;;;;;;;12.02;8.68;;;;;;;;;;5056260;28;20024;-76
2022/06/21 13:15:48;;;;;;;14.07;8.00;;;;;;;;;;5055824;28;20021;-75
2022/06/21 13:18:25;;;;;;;15.80;7.72;;;;;;;;;;5053717;28;20025;-76
2022/06/21 13:20:54;;;;;;;12.02;9.48;;;;;;;;;;5054443;28;20116;-78
2022/06/21 13:23:23;;;;;;;11.73;9.65;;;;;;;;;;5054477;28;20451;-75
2022/06/21 13:26:02;;;;;;;17.73;9.30;;;;;;;;;;5054792;28;20028;-74
2022/06/21 13:28:29;;;;;;;14.43;9.93;;;;;;;;;;5053657;28;20027;-76
2022/06/21 13:31:05;;;;;;;11.05;9.23;;;;;;;;;;5054065;28;20362;-75
2022/06/21 13:33:31;;;;;;;15.52;9.68;;;;;;;;;;5052577;28;20055;-77
2022/06/21 13:35:59;;;;;;;11.82;10.07;;;;;;;;;;5054924;28;20040;-77
2022/06/21 13:38:44;;;;;;;12.65;8.65;;;;;;;;;;5055138;28;20092;-74
2022/06/21 13:41:10;;;;;;;14.25;9.23;;;;;;;;;;5054558;28;20031;-77
2022/06/21 13:43:38;;;;;;;11.35;10.07;;;;;;;;;;5054553;28;20008;-76
2022/06/21 13:46:12;;;;;;;19.30;11.23;;;;;;;;;;5055062;28;20017;-77
2022/06/21 13:48:41;;;;;;;15.15;9.57;;;;;;;;;;5053343;28;20031;-76
2022/06/21 13:51:14;;;;;;;12.38;10.98;;;;;;;;;;5054702;28;20048;-75
2022/06/21 13:53:44;;;;;;;12.90;10.18;;;;;;;;;;5054372;28;20529;-75
2022/06/21 13:56:29;;;;;;;10.30;9.30;;;;;;;;;;5053930;28;20020;-76
2022/06/21 13:59:03;;;;;;;12.80;9.55;;;;;;;;;;5053284;28;20359;-79
2022/06/21 14:01:29;;;;;;;13.93;9.90;;;;;;;;;;5053854;28;20029;-77
2022/06/21 14:03:56;;;;;;;12.40;9.60;;;;;;;;;;5052037;28;20035;-79
2022/06/21 14:06:27;;;;;;;17.23;10.48;;;;;;;;;;5053685;28;20085;-79
2022/06/21 14:08:58;;;;;;;21.77;11.00;;;;;;;;;;5053646;28;20017;-76
2022/06/21 14:11:28;;;;;;;11.18;9.10;;;;;;;;;;5051108;28;20062;-77
2022/06/21 14:13:59;;;;;;;13.10;10.10;;;;;;;;;;5053539;28;20676;-77
2022/06/21 14:16:33;;;;;;;12.27;9.40;;;;;;;;;;5053412;28;20063;-77
2022/06/21 14:19:07;;;;;;;13.63;9.40;;;;;;;;;;5051868;28;20456;-79
2022/06/21 14:21:41;;;;;;;16.20;9.13;;;;;;;;;;5053321;28;20464;-77
2022/06/21 14:24:19;;;;;;;17.48;10.60;;;;;;;;;;5051167;28;20017;-77
2022/06/21 14:26:47;;;;;;;13.00;10.07;;;;;;;;;;5051840;28;20033;-77
2022/06/21 14:29:19;;;;;;;11.35;9.60;;;;;;;;;;5054575;28;20016;-76
2022/06/21 14:32:09;;;;;;;9.75;8.85;;;;;;;;;;5052665;28;20025;-75